SGAS/ASU METAR and TAF weather

Enter ICAO airport designator
Station Type Date Time Source
SGAS METAR 2019/10/18 11:00 UTC NOAA

SGAS 181100Z 160010KT 9999 -TSRA BKN017 FEW040CB OVC070 20/19 Q1015


Station Type Date Time Source
SGAS Decoded METAR 2019/10/18 11:00 UTC NOAA

Asuncion / Aeropuerto, Paraguay (SGAS) 25-16S 057-38W 101M
Oct 18, 2019 - 07:00 AM EDT / 2019.10.18 1100 UTC
Wind: from the SSE (160 degrees) at 12 MPH (10 KT):0
Visibility: greater than 7 mile(s):0
Sky conditions: overcast
Weather: light rain with thunder; Cumulonimbus clouds observed
Temperature: 68 F (20 C)
Dew Point: 66 F (19 C)
Relative Humidity: 93%
Pressure (altimeter): 29.97 in. Hg (1015 hPa)
ob: SGAS 181100Z 160010KT 9999 -TSRA BKN017 FEW040CB OVC070 20/19 Q1015
cycle: 11

Station Type Date Time Source
SGAS TAF 2019/10/18 12:26 UTC NOAA

TAF SGAS 181000Z 1812/1912 19008KT 5000 TSRA OVC012 FEW040CB TX23/1818Z TN18/1909Z
BECMG 1813/1815 15004KT 8000 -TSRA BKN015 FEW040CB
BECMG 1815/1817 9000 BKN020 PROB30 1817/1819 7000 TSRA BKN015 FEW040CB
BECMG 1820/1822 8000 -RA BKN012
TEMPO 1823/1901 19006KT 9999 BKN017 PROB40 1908/1910 8000 -DZ OVC012

Example: see airport list